Time;durP1;ratioP1;P1;durP2;ratioP2;P2;SDS_P1;SDS_P2;PMS_P1;PMS_P2;Temp;Humidity;BMP_temperature;BMP_pressure;BME280_temperature;BME280_humidity;BME280_pressure;Samples;Min_cycle;Max_cycle;Signal;HPM_P1;HPM_P2
2023/08/15 00:01:37;;;;;;;4.25;2.30;;;;;;;;;;5030962;28;20211;-68
2023/08/15 00:04:05;;;;;;;2.30;2.17;;;;;;;;;;5030919;28;20223;-68
2023/08/15 00:06:32;;;;;;;3.13;2.22;;;;;;;;;;5024505;28;20212;-68
2023/08/15 00:08:59;;;;;;;2.90;2.55;;;;;;;;;;5028093;28;20211;-68
2023/08/15 00:11:26;;;;;;;4.93;2.72;;;;;;;;;;5031003;28;20212;-68
2023/08/15 00:13:56;;;;;;;3.50;2.28;;;;;;;;;;5023536;28;20207;-68
2023/08/15 00:16:24;;;;;;;3.35;2.53;;;;;;;;;;5026472;28;20291;-68
2023/08/15 00:18:52;;;;;;;2.10;2.00;;;;;;;;;;5021252;28;20208;-68
2023/08/15 00:21:19;;;;;;;2.53;2.33;;;;;;;;;;5024164;28;20211;-68
2023/08/15 00:23:46;;;;;;;4.72;2.13;;;;;;;;;;5021051;28;20212;-67
2023/08/15 00:26:17;;;;;;;4.50;2.40;;;;;;;;;;5026028;28;20208;-69
2023/08/15 00:28:44;;;;;;;2.55;2.35;;;;;;;;;;5025543;28;20201;-68
2023/08/15 00:31:12;;;;;;;3.13;2.40;;;;;;;;;;5029788;28;20200;-69
2023/08/15 00:33:40;;;;;;;2.90;2.70;;;;;;;;;;5017640;28;20201;-68
2023/08/15 00:36:08;;;;;;;3.40;2.67;;;;;;;;;;5018886;28;20209;-69
2023/08/15 00:38:35;;;;;;;2.72;2.53;;;;;;;;;;5028686;28;20208;-67
2023/08/15 00:41:02;;;;;;;2.40;2.10;;;;;;;;;;5024399;28;20208;-68
2023/08/15 00:43:29;;;;;;;3.55;2.13;;;;;;;;;;5024143;28;20224;-68
2023/08/15 00:45:57;;;;;;;2.53;2.20;;;;;;;;;;5031004;28;20203;-68
2023/08/15 00:48:29;;;;;;;3.42;2.38;;;;;;;;;;5025575;28;20210;-68
2023/08/15 00:50:59;;;;;;;3.92;3.00;;;;;;;;;;5022298;28;20224;-68
2023/08/15 00:53:27;;;;;;;3.20;2.88;;;;;;;;;;5027136;28;20213;-68
2023/08/15 00:55:55;;;;;;;3.58;2.55;;;;;;;;;;5022542;28;20204;-68
2023/08/15 00:58:23;;;;;;;3.88;2.65;;;;;;;;;;5026467;28;20207;-69
2023/08/15 01:00:50;;;;;;;3.58;2.72;;;;;;;;;;5024774;28;20208;-63
2023/08/15 01:03:18;;;;;;;4.80;2.83;;;;;;;;;;5025997;28;20230;-63
2023/08/15 01:05:45;;;;;;;2.72;2.53;;;;;;;;;;5024384;28;20215;-64
2023/08/15 01:08:14;;;;;;;3.85;2.60;;;;;;;;;;5024137;28;20214;-62
2023/08/15 01:10:41;;;;;;;3.08;2.58;;;;;;;;;;5031000;28;20211;-62
2023/08/15 01:13:10;;;;;;;3.10;2.90;;;;;;;;;;5026027;28;20206;-63
2023/08/15 01:15:40;;;;;;;3.60;2.70;;;;;;;;;;5025281;28;20322;-63
2023/08/15 01:18:10;;;;;;;5.65;2.60;;;;;;;;;;5024373;28;20204;-63
2023/08/15 01:20:38;;;;;;;3.08;2.80;;;;;;;;;;5022431;28;20207;-63
2023/08/15 01:23:06;;;;;;;3.08;2.38;;;;;;;;;;5023439;28;20231;-63
2023/08/15 01:25:40;;;;;;;3.25;2.47;;;;;;;;;;5026754;28;20337;-63
2023/08/15 01:28:08;;;;;;;2.53;2.33;;;;;;;;;;5022944;28;20215;-63
2023/08/15 01:30:35;;;;;;;2.85;2.30;;;;;;;;;;5025058;28;20208;-63
2023/08/15 01:33:03;;;;;;;2.88;2.60;;;;;;;;;;5024241;28;20204;-62
2023/08/15 01:35:33;;;;;;;3.67;3.33;;;;;;;;;;5022651;28;20214;-63
2023/08/15 01:38:01;;;;;;;4.93;2.40;;;;;;;;;;5029049;28;20212;-62
2023/08/15 01:40:30;;;;;;;3.70;2.78;;;;;;;;;;5021522;28;20196;-63
2023/08/15 01:42:59;;;;;;;3.63;3.25;;;;;;;;;;5021955;28;20230;-63
2023/08/15 01:45:28;;;;;;;5.50;4.70;;;;;;;;;;5024691;28;20204;-62
2023/08/15 01:47:55;;;;;;;8.20;5.40;;;;;;;;;;5021898;28;20560;-63
2023/08/15 01:50:22;;;;;;;3.85;3.55;;;;;;;;;;5025991;28;20233;-63
2023/08/15 01:52:49;;;;;;;3.42;3.13;;;;;;;;;;5026328;28;20197;-62
2023/08/15 01:55:17;;;;;;;4.65;3.90;;;;;;;;;;5022243;28;20211;-63
2023/08/15 01:57:44;;;;;;;3.88;3.17;;;;;;;;;;5017115;28;20206;-62
2023/08/15 02:00:13;;;;;;;3.28;2.97;;;;;;;;;;5020660;28;20227;-62
2023/08/15 02:02:40;;;;;;;5.28;4.20;;;;;;;;;;5024394;28;20303;-63
2023/08/15 02:05:08;;;;;;;5.60;4.10;;;;;;;;;;5021165;28;20205;-62
2023/08/15 02:07:35;;;;;;;4.40;3.47;;;;;;;;;;5024967;28;20200;-62
2023/08/15 02:10:02;;;;;;;5.53;3.75;;;;;;;;;;5024361;28;20212;-63
2023/08/15 02:12:29;;;;;;;4.40;3.75;;;;;;;;;;5028661;28;20204;-64
2023/08/15 02:14:56;;;;;;;5.75;3.78;;;;;;;;;;5033471;28;20200;-64
2023/08/15 02:17:25;;;;;;;3.92;3.60;;;;;;;;;;5027784;28;20200;-64
2023/08/15 02:19:52;;;;;;;4.68;2.78;;;;;;;;;;5026755;28;20200;-64
2023/08/15 02:22:19;;;;;;;4.78;1.80;;;;;;;;;;5018396;28;20197;-64
2023/08/15 02:24:46;;;;;;;4.85;1.90;;;;;;;;;;5028683;28;20233;-63
2023/08/15 02:27:13;;;;;;;12.00;1.88;;;;;;;;;;5026998;28;20200;-62
2023/08/15 02:29:41;;;;;;;4.47;1.80;;;;;;;;;;5027335;28;20211;-63
2023/08/15 02:32:08;;;;;;;5.10;2.10;;;;;;;;;;5028142;28;20197;-61
2023/08/15 02:34:36;;;;;;;2.80;1.10;;;;;;;;;;5025739;28;20208;-64
2023/08/15 02:37:03;;;;;;;2.33;1.20;;;;;;;;;;5033465;28;20227;-63
2023/08/15 02:39:31;;;;;;;1.30;1.20;;;;;;;;;;5025750;28;20205;-62
2023/08/15 02:41:58;;;;;;;2.58;1.40;;;;;;;;;;5025066;28;20212;-63
2023/08/15 02:44:25;;;;;;;2.17;1.27;;;;;;;;;;5027374;28;20313;-63
2023/08/15 02:46:52;;;;;;;3.28;1.20;;;;;;;;;;5027154;28;20202;-69
2023/08/15 02:49:20;;;;;;;2.58;0.95;;;;;;;;;;5021158;28;20201;-69
2023/08/15 02:51:49;;;;;;;2.72;1.15;;;;;;;;;;5023525;28;20204;-68
2023/08/15 02:54:16;;;;;;;1.27;1.10;;;;;;;;;;5026996;28;20272;-68
2023/08/15 02:56:43;;;;;;;1.58;0.80;;;;;;;;;;5026359;28;20266;-68
2023/08/15 02:59:11;;;;;;;2.65;0.93;;;;;;;;;;5029060;28;20247;-68
2023/08/15 03:01:38;;;;;;;1.70;1.00;;;;;;;;;;5029792;28;20254;-68
2023/08/15 03:04:07;;;;;;;2.42;0.98;;;;;;;;;;5022441;28;20209;-66
2023/08/15 03:06:34;;;;;;;0.90;0.90;;;;;;;;;;5021331;28;20204;-68
2023/08/15 03:09:02;;;;;;;0.77;0.77;;;;;;;;;;5030163;28;20200;-68
2023/08/15 03:11:30;;;;;;;2.47;1.20;;;;;;;;;;5026945;28;20208;-68
2023/08/15 03:13:59;;;;;;;1.73;1.00;;;;;;;;;;5029032;28;20206;-68
2023/08/15 03:16:27;;;;;;;1.02;0.98;;;;;;;;;;5026271;28;20271;-69
2023/08/15 03:18:54;;;;;;;2.15;1.20;;;;;;;;;;5020956;28;20212;-70
2023/08/15 03:21:22;;;;;;;2.67;1.20;;;;;;;;;;5015306;28;20204;-69
2023/08/15 03:23:49;;;;;;;1.42;0.95;;;;;;;;;;5024007;28;20226;-67
2023/08/15 03:26:17;;;;;;;1.38;1.10;;;;;;;;;;5022538;28;20297;-69
2023/08/15 03:28:44;;;;;;;2.25;1.10;;;;;;;;;;5021914;28;20207;-69
2023/08/15 03:31:12;;;;;;;2.50;1.00;;;;;;;;;;5023345;28;20223;-68
2023/08/15 03:33:39;;;;;;;3.55;1.10;;;;;;;;;;5023058;28;20208;-68
2023/08/15 03:36:06;;;;;;;1.92;0.90;;;;;;;;;;5021613;28;20296;-67
2023/08/15 03:38:33;;;;;;;1.50;1.00;;;;;;;;;;5021244;28;20211;-68
2023/08/15 03:41:04;;;;;;;1.10;1.00;;;;;;;;;;5024522;28;20214;-68
2023/08/15 03:43:33;;;;;;;0.98;0.90;;;;;;;;;;5023283;28;20221;-68
2023/08/15 03:46:00;;;;;;;4.22;1.38;;;;;;;;;;5016070;28;20207;-68
2023/08/15 03:48:29;;;;;;;2.50;1.08;;;;;;;;;;5026994;28;20208;-68
2023/08/15 03:50:58;;;;;;;2.75;1.40;;;;;;;;;;5025194;28;20287;-68
2023/08/15 03:53:25;;;;;;;2.72;1.25;;;;;;;;;;5023947;28;20322;-68
2023/08/15 03:55:54;;;;;;;5.97;1.10;;;;;;;;;;5023211;28;20200;-68
2023/08/15 03:58:21;;;;;;;2.17;1.20;;;;;;;;;;5027462;28;20305;-68
2023/08/15 04:00:50;;;;;;;3.80;1.30;;;;;;;;;;5021078;28;20201;-68
2023/08/15 04:03:17;;;;;;;1.30;1.10;;;;;;;;;;5019850;28;20212;-67
2023/08/15 04:05:45;;;;;;;2.33;1.20;;;;;;;;;;5018491;28;20209;-68
2023/08/15 04:08:12;;;;;;;1.35;1.25;;;;;;;;;;5022217;28;20263;-67
2023/08/15 04:10:40;;;;;;;2.30;1.20;;;;;;;;;;5029056;28;20208;-68
2023/08/15 04:13:07;;;;;;;1.80;1.15;;;;;;;;;;5026556;28;20212;-68
2023/08/15 04:15:35;;;;;;;1.13;1.02;;;;;;;;;;5023208;28;20214;-68
2023/08/15 04:18:04;;;;;;;1.67;1.10;;;;;;;;;;5030638;28;20227;-67
2023/08/15 04:20:31;;;;;;;1.83;1.30;;;;;;;;;;5017198;28;20212;-68
2023/08/15 04:22:58;;;;;;;1.40;1.20;;;;;;;;;;5017834;28;20206;-69
2023/08/15 04:25:26;;;;;;;2.42;1.10;;;;;;;;;;5020356;28;20227;-71
2023/08/15 04:27:53;;;;;;;3.38;1.27;;;;;;;;;;5022199;28;20215;-68
2023/08/15 04:30:21;;;;;;;2.00;1.45;;;;;;;;;;5023866;28;20218;-68
2023/08/15 04:32:48;;;;;;;3.42;1.40;;;;;;;;;;5020944;28;20200;-68
2023/08/15 04:35:17;;;;;;;1.38;1.10;;;;;;;;;;5021499;28;20204;-68
2023/08/15 04:37:44;;;;;;;3.58;1.27;;;;;;;;;;5018017;28;20292;-68
2023/08/15 04:40:12;;;;;;;3.45;1.40;;;;;;;;;;5022709;28;20204;-68
2023/08/15 04:42:39;;;;;;;3.15;1.50;;;;;;;;;;5020451;28;20205;-68
2023/08/15 04:45:07;;;;;;;1.20;1.10;;;;;;;;;;5025318;28;20220;-67
2023/08/15 04:47:35;;;;;;;1.58;1.25;;;;;;;;;;5020837;28;20220;-68
2023/08/15 04:50:02;;;;;;;2.30;1.15;;;;;;;;;;5023108;28;20216;-68
2023/08/15 04:52:30;;;;;;;1.83;1.60;;;;;;;;;;5020742;28;20200;-68
2023/08/15 04:54:57;;;;;;;2.50;1.30;;;;;;;;;;5014316;28;20208;-67
2023/08/15 04:57:25;;;;;;;1.88;1.45;;;;;;;;;;5020294;28;20204;-68
2023/08/15 04:59:52;;;;;;;1.20;1.20;;;;;;;;;;5020025;28;20240;-69
2023/08/15 05:02:19;;;;;;;1.20;1.10;;;;;;;;;;5022110;28;20200;-68
2023/08/15 05:04:46;;;;;;;2.92;1.10;;;;;;;;;;5018144;28;20216;-67
2023/08/15 05:07:13;;;;;;;3.20;1.50;;;;;;;;;;5017056;28;20215;-68
2023/08/15 05:09:43;;;;;;;2.17;1.30;;;;;;;;;;5018578;28;20204;-64
2023/08/15 05:12:10;;;;;;;1.35;1.10;;;;;;;;;;5019436;28;20231;-63
2023/08/15 05:14:37;;;;;;;1.30;1.20;;;;;;;;;;5020512;28;20200;-63
2023/08/15 05:17:04;;;;;;;1.55;1.20;;;;;;;;;;5021879;28;20209;-63
2023/08/15 05:19:31;;;;;;;3.63;1.70;;;;;;;;;;5021386;28;20215;-63
2023/08/15 05:21:58;;;;;;;5.85;2.00;;;;;;;;;;5020145;28;20263;-63
2023/08/15 05:24:25;;;;;;;1.90;1.60;;;;;;;;;;5025684;28;20212;-63
2023/08/15 05:26:54;;;;;;;3.25;1.63;;;;;;;;;;5021138;28;20296;-63
2023/08/15 05:29:21;;;;;;;1.73;1.63;;;;;;;;;;5020576;28;20208;-62
2023/08/15 05:31:48;;;;;;;2.03;1.50;;;;;;;;;;5023425;28;20208;-62
2023/08/15 05:34:15;;;;;;;1.10;1.10;;;;;;;;;;5020419;28;20205;-62
2023/08/15 05:36:43;;;;;;;1.50;1.40;;;;;;;;;;5021604;28;20204;-63
2023/08/15 05:39:10;;;;;;;1.65;1.55;;;;;;;;;;5018830;28;20205;-63
2023/08/15 05:41:37;;;;;;;2.55;1.60;;;;;;;;;;5021369;28;20213;-62
2023/08/15 05:44:06;;;;;;;3.53;1.50;;;;;;;;;;5024326;28;20219;-63
2023/08/15 05:46:33;;;;;;;1.30;1.27;;;;;;;;;;5016139;28;20203;-63
2023/08/15 05:49:01;;;;;;;1.35;1.25;;;;;;;;;;5018970;28;20208;-63
2023/08/15 05:51:28;;;;;;;1.52;1.27;;;;;;;;;;5025942;28;20209;-62
2023/08/15 05:53:55;;;;;;;1.48;1.38;;;;;;;;;;5022413;28;20219;-63
2023/08/15 05:56:22;;;;;;;1.98;1.77;;;;;;;;;;5026404;28;20204;-62
2023/08/15 05:58:49;;;;;;;3.03;1.55;;;;;;;;;;5025460;28;20243;-62
2023/08/15 06:01:20;;;;;;;1.70;1.60;;;;;;;;;;5020852;28;20215;-63
2023/08/15 06:03:48;;;;;;;2.15;1.83;;;;;;;;;;5024939;28;20197;-63
2023/08/15 06:06:15;;;;;;;2.28;1.60;;;;;;;;;;5020956;28;20243;-62
2023/08/15 06:08:42;;;;;;;1.55;1.38;;;;;;;;;;5017292;28;20259;-63
2023/08/15 06:11:09;;;;;;;2.75;1.05;;;;;;;;;;5031038;28;20231;-62
2023/08/15 06:13:37;;;;;;;1.95;1.15;;;;;;;;;;5023446;28;20200;-63
2023/08/15 06:16:04;;;;;;;1.50;1.40;;;;;;;;;;5021562;28;20204;-62
2023/08/15 06:18:33;;;;;;;1.73;1.63;;;;;;;;;;5019032;28;20216;-67
2023/08/15 06:21:00;;;;;;;4.10;1.30;;;;;;;;;;5017530;28;20227;-68
2023/08/15 06:23:30;;;;;;;2.15;1.23;;;;;;;;;;5012471;28;20235;-67
2023/08/15 06:25:58;;;;;;;2.80;1.30;;;;;;;;;;5020950;28;20209;-69
2023/08/15 06:28:29;;;;;;;2.15;1.50;;;;;;;;;;5019445;28;20200;-69
2023/08/15 06:30:56;;;;;;;1.58;1.33;;;;;;;;;;5019341;28;20200;-68
2023/08/15 06:33:24;;;;;;;1.20;1.17;;;;;;;;;;5021605;28;20290;-67
2023/08/15 06:35:52;;;;;;;1.80;1.40;;;;;;;;;;5020221;28;20212;-68
2023/08/15 06:38:20;;;;;;;1.42;1.33;;;;;;;;;;5018665;28;20205;-68
2023/08/15 06:40:47;;;;;;;3.30;1.30;;;;;;;;;;5019741;28;20233;-68
2023/08/15 06:43:14;;;;;;;2.88;1.40;;;;;;;;;;5022092;28;20209;-67
2023/08/15 06:45:42;;;;;;;1.13;1.10;;;;;;;;;;5021235;28;20213;-68
2023/08/15 06:48:09;;;;;;;4.00;1.30;;;;;;;;;;5017402;28;20208;-67
2023/08/15 06:50:36;;;;;;;1.52;1.20;;;;;;;;;;5024373;28;20284;-68
2023/08/15 06:53:05;;;;;;;1.58;1.20;;;;;;;;;;5023972;28;20209;-67
2023/08/15 06:55:33;;;;;;;1.40;1.30;;;;;;;;;;5022625;28;20204;-67
2023/08/15 06:58:01;;;;;;;1.13;0.98;;;;;;;;;;5021416;28;20338;-68
2023/08/15 07:00:29;;;;;;;1.30;1.20;;;;;;;;;;5022083;28;20232;-67
2023/08/15 07:02:58;;;;;;;2.08;1.00;;;;;;;;;;5019302;28;20213;-67
2023/08/15 07:05:34;;;;;;;1.52;1.30;;;;;;;;;;5025855;28;20262;-67
2023/08/15 07:08:03;;;;;;;1.27;1.13;;;;;;;;;;5014222;28;20212;-67
2023/08/15 07:10:32;;;;;;;1.83;1.05;;;;;;;;;;5021179;28;20197;-67
2023/08/15 07:12:59;;;;;;;1.10;1.10;;;;;;;;;;5019978;28;20488;-66
2023/08/15 07:15:27;;;;;;;2.95;1.05;;;;;;;;;;5018608;28;20208;-67
2023/08/15 07:17:54;;;;;;;2.03;1.20;;;;;;;;;;5024297;28;20240;-67
2023/08/15 07:20:22;;;;;;;2.55;1.30;;;;;;;;;;5018746;28;20204;-67
2023/08/15 07:22:49;;;;;;;2.58;1.30;;;;;;;;;;5019142;28;20207;-66
2023/08/15 07:25:16;;;;;;;1.23;1.13;;;;;;;;;;5018792;28;20274;-66
2023/08/15 07:27:45;;;;;;;1.63;0.85;;;;;;;;;;5016636;28;20196;-66
2023/08/15 07:30:13;;;;;;;1.20;1.20;;;;;;;;;;5019111;28;20251;-67
2023/08/15 07:32:41;;;;;;;3.75;1.30;;;;;;;;;;5023888;28;20226;-67
2023/08/15 07:35:09;;;;;;;1.48;1.13;;;;;;;;;;5018275;28;20225;-67
2023/08/15 07:37:36;;;;;;;1.25;1.15;;;;;;;;;;5015985;28;20200;-66
2023/08/15 07:40:05;;;;;;;0.90;0.90;;;;;;;;;;5016640;28;20210;-66
2023/08/15 07:42:33;;;;;;;2.30;1.10;;;;;;;;;;5019098;28;20284;-66
2023/08/15 07:45:02;;;;;;;1.27;1.17;;;;;;;;;;5020132;28;20297;-66
2023/08/15 07:47:34;;;;;;;1.80;1.10;;;;;;;;;;5016819;28;20204;-66
2023/08/15 07:50:13;;;;;;;1.33;0.95;;;;;;;;;;5019568;28;20289;-66
2023/08/15 07:52:40;;;;;;;1.35;1.08;;;;;;;;;;5021790;28;20239;-66
2023/08/15 07:55:08;;;;;;;4.15;1.27;;;;;;;;;;5019405;28;20205;-66
2023/08/15 07:57:35;;;;;;;1.27;1.10;;;;;;;;;;5017712;28;20215;-67
2023/08/15 08:00:04;;;;;;;1.63;1.00;;;;;;;;;;5018022;28;20236;-66
2023/08/15 08:02:31;;;;;;;1.83;1.20;;;;;;;;;;5019241;28;20207;-67
2023/08/15 08:04:59;;;;;;;1.00;0.90;;;;;;;;;;5023511;28;20216;-66
2023/08/15 08:07:27;;;;;;;2.08;1.10;;;;;;;;;;5023958;28;20204;-66
2023/08/15 08:09:54;;;;;;;1.77;1.05;;;;;;;;;;5016762;28;20212;-66
2023/08/15 08:12:22;;;;;;;2.38;1.10;;;;;;;;;;5020439;28;20279;-66
2023/08/15 08:14:49;;;;;;;1.13;1.00;;;;;;;;;;5018028;28;20197;-66
2023/08/15 08:17:17;;;;;;;1.02;0.95;;;;;;;;;;5020246;28;20204;-67
2023/08/15 08:19:44;;;;;;;2.78;1.30;;;;;;;;;;5020714;28;20201;-66
2023/08/15 08:22:12;;;;;;;1.15;0.90;;;;;;;;;;5019740;28;20208;-67
2023/08/15 08:24:39;;;;;;;1.20;1.10;;;;;;;;;;5022483;28;20299;-66
2023/08/15 08:27:06;;;;;;;1.02;1.00;;;;;;;;;;5017539;28;20215;-67
2023/08/15 08:29:34;;;;;;;1.70;1.10;;;;;;;;;;5018690;28;20204;-66
2023/08/15 08:32:01;;;;;;;2.78;1.10;;;;;;;;;;5014445;28;20293;-67
2023/08/15 08:34:29;;;;;;;1.17;1.02;;;;;;;;;;5024357;28;20228;-66
2023/08/15 08:36:57;;;;;;;2.20;1.08;;;;;;;;;;5017979;28;20200;-66
2023/08/15 08:39:24;;;;;;;2.20;1.15;;;;;;;;;;5019808;28;20208;-62
2023/08/15 08:41:51;;;;;;;1.13;1.02;;;;;;;;;;5014246;28;20207;-62
2023/08/15 08:44:19;;;;;;;1.10;1.02;;;;;;;;;;5016910;28;20204;-62
2023/08/15 08:46:46;;;;;;;1.05;1.02;;;;;;;;;;5011669;28;20232;-62
2023/08/15 08:49:14;;;;;;;1.40;1.17;;;;;;;;;;5015224;28;20236;-62
2023/08/15 08:51:43;;;;;;;1.60;1.10;;;;;;;;;;5017832;28;20205;-62
2023/08/15 08:54:10;;;;;;;2.10;1.10;;;;;;;;;;5019269;28;20208;-63
2023/08/15 08:56:39;;;;;;;3.08;1.20;;;;;;;;;;5016197;28;20208;-63
2023/08/15 08:59:07;;;;;;;2.00;1.20;;;;;;;;;;5018880;28;20239;-62
2023/08/15 09:01:35;;;;;;;1.38;1.27;;;;;;;;;;5022057;28;20235;-63
2023/08/15 09:04:02;;;;;;;1.48;0.93;;;;;;;;;;5018071;28;20207;-63
2023/08/15 09:06:29;;;;;;;1.65;1.10;;;;;;;;;;5025202;28;20219;-62
2023/08/15 09:09:00;;;;;;;2.28;1.50;;;;;;;;;;5016294;28;20205;-63
2023/08/15 09:11:33;;;;;;;1.33;1.23;;;;;;;;;;5021132;28;20205;-63
2023/08/15 09:14:03;;;;;;;1.60;1.27;;;;;;;;;;5020130;28;20227;-62
2023/08/15 09:16:30;;;;;;;2.88;1.00;;;;;;;;;;5013761;28;20259;-62
2023/08/15 09:18:57;;;;;;;3.65;1.38;;;;;;;;;;5021085;28;20254;-62
2023/08/15 09:21:28;;;;;;;1.73;1.38;;;;;;;;;;5022155;28;20199;-63
2023/08/15 09:23:56;;;;;;;4.47;1.33;;;;;;;;;;5023659;28;20207;-62
2023/08/15 09:26:27;;;;;;;4.82;1.58;;;;;;;;;;5028684;28;20246;-63
2023/08/15 09:28:54;;;;;;;3.67;1.50;;;;;;;;;;5023683;28;20218;-62
2023/08/15 09:31:22;;;;;;;2.83;1.50;;;;;;;;;;5022765;28;20208;-63
2023/08/15 09:33:49;;;;;;;2.00;1.25;;;;;;;;;;5014568;28;20207;-62
2023/08/15 09:36:16;;;;;;;1.33;1.23;;;;;;;;;;5018773;28;20204;-62
2023/08/15 09:38:44;;;;;;;1.13;1.10;;;;;;;;;;5018140;28;20218;-62
2023/08/15 09:41:12;;;;;;;2.55;1.02;;;;;;;;;;5018289;28;20258;-62
2023/08/15 09:43:50;;;;;;;1.92;1.10;;;;;;;;;;5019173;28;20287;-63
2023/08/15 09:46:18;;;;;;;2.50;1.50;;;;;;;;;;5018174;28;20233;-62
2023/08/15 09:48:47;;;;;;;2.70;1.25;;;;;;;;;;5018597;28;20200;-62
2023/08/15 09:51:15;;;;;;;2.25;1.27;;;;;;;;;;5019463;28;20200;-64
2023/08/15 09:53:43;;;;;;;2.85;1.30;;;;;;;;;;5018207;28;20291;-62
2023/08/15 09:56:10;;;;;;;3.08;1.38;;;;;;;;;;5018867;28;20201;-62
2023/08/15 09:58:38;;;;;;;2.35;1.25;;;;;;;;;;5020788;28;20239;-62
2023/08/15 10:01:08;;;;;;;2.83;1.25;;;;;;;;;;5019567;28;20200;-62
2023/08/15 10:03:37;;;;;;;3.45;1.40;;;;;;;;;;5019027;28;20296;-63
2023/08/15 10:06:06;;;;;;;1.63;1.05;;;;;;;;;;5015843;28;20682;-63
2023/08/15 10:08:33;;;;;;;1.40;1.10;;;;;;;;;;5020355;28;20258;-63
2023/08/15 10:11:00;;;;;;;1.80;1.30;;;;;;;;;;5019725;28;20283;-63
2023/08/15 10:13:30;;;;;;;1.45;1.20;;;;;;;;;;5017180;28;20272;-61
2023/08/15 10:15:57;;;;;;;1.38;1.15;;;;;;;;;;5018509;28;20201;-63
2023/08/15 10:18:26;;;;;;;1.38;1.10;;;;;;;;;;5030042;28;20208;-62
2023/08/15 10:20:56;;;;;;;3.15;1.20;;;;;;;;;;5020128;28;20662;-63
2023/08/15 10:23:27;;;;;;;1.52;1.27;;;;;;;;;;5025343;28;20370;-62
2023/08/15 10:25:55;;;;;;;2.15;1.40;;;;;;;;;;5016198;28;20232;-62
2023/08/15 10:28:22;;;;;;;3.55;1.60;;;;;;;;;;5019667;28;20200;-63
2023/08/15 10:30:50;;;;;;;2.65;1.65;;;;;;;;;;5019675;28;20197;-62
2023/08/15 10:33:18;;;;;;;5.32;1.48;;;;;;;;;;5016674;28;20298;-62
2023/08/15 10:35:51;;;;;;;6.45;2.10;;;;;;;;;;5022345;28;20243;-64
2023/08/15 10:38:19;;;;;;;12.48;2.65;;;;;;;;;;5019689;28;20272;-62
2023/08/15 10:40:46;;;;;;;17.58;2.30;;;;;;;;;;5021706;28;20209;-63
2023/08/15 10:43:16;;;;;;;3.65;1.63;;;;;;;;;;5026884;28;20218;-63
2023/08/15 10:45:45;;;;;;;3.78;1.92;;;;;;;;;;5027232;28;20278;-63
2023/08/15 10:48:12;;;;;;;3.38;1.77;;;;;;;;;;5019247;28;20193;-62
2023/08/15 10:50:47;;;;;;;4.45;2.10;;;;;;;;;;5024347;28;20201;-63
2023/08/15 10:53:16;;;;;;;7.50;2.22;;;;;;;;;;5025583;28;20226;-63
2023/08/15 10:55:43;;;;;;;6.32;2.03;;;;;;;;;;5021941;28;20200;-63
2023/08/15 10:58:11;;;;;;;12.88;2.33;;;;;;;;;;5021971;28;20204;-67
2023/08/15 11:00:41;;;;;;;4.85;2.50;;;;;;;;;;5019912;28;20234;-67
2023/08/15 11:03:09;;;;;;;4.70;2.88;;;;;;;;;;5026553;28;20205;-68
2023/08/15 11:05:36;;;;;;;4.72;2.63;;;;;;;;;;5019109;28;20204;-66
2023/08/15 11:08:10;;;;;;;4.90;2.83;;;;;;;;;;5019598;28;20202;-67
2023/08/15 11:10:43;;;;;;;7.13;3.22;;;;;;;;;;5022593;28;20204;-68
2023/08/15 11:13:10;;;;;;;4.47;3.53;;;;;;;;;;5024730;28;20208;-67
2023/08/15 11:15:37;;;;;;;6.97;3.80;;;;;;;;;;5021701;28;20609;-67
2023/08/15 11:18:05;;;;;;;8.98;3.83;;;;;;;;;;5025776;28;20208;-67
2023/08/15 11:20:32;;;;;;;4.32;3.40;;;;;;;;;;5021178;28;20201;-67
2023/08/15 11:22:59;;;;;;;4.70;3.22;;;;;;;;;;5024036;28;20210;-67
2023/08/15 11:25:27;;;;;;;5.03;3.20;;;;;;;;;;5022806;28;20212;-67
2023/08/15 11:27:55;;;;;;;3.70;3.05;;;;;;;;;;5023616;28;20236;-67
2023/08/15 11:30:22;;;;;;;4.57;3.90;;;;;;;;;;5022441;28;20208;-67
2023/08/15 11:32:50;;;;;;;5.97;3.90;;;;;;;;;;5023517;28;20204;-67
2023/08/15 11:35:18;;;;;;;6.50;4.25;;;;;;;;;;5026110;28;20207;-67
2023/08/15 11:37:46;;;;;;;4.10;3.58;;;;;;;;;;5025462;28;20196;-67
2023/08/15 11:40:13;;;;;;;4.63;4.22;;;;;;;;;;5022413;28;20205;-67
2023/08/15 11:42:40;;;;;;;4.15;3.85;;;;;;;;;;5027888;28;20205;-67
2023/08/15 11:45:13;;;;;;;4.78;4.35;;;;;;;;;;5019101;28;20200;-67
2023/08/15 11:47:53;;;;;;;5.13;3.80;;;;;;;;;;5021846;28;20220;-66
2023/08/15 11:50:20;;;;;;;7.68;4.20;;;;;;;;;;5021991;28;20203;-67
2023/08/15 11:52:47;;;;;;;8.70;4.75;;;;;;;;;;5022331;28;20690;-67
2023/08/15 11:55:15;;;;;;;5.28;4.80;;;;;;;;;;5017758;28;20215;-67
2023/08/15 11:57:42;;;;;;;6.60;5.35;;;;;;;;;;5017038;28;20492;-66
2023/08/15 12:00:10;;;;;;;5.72;5.30;;;;;;;;;;5017287;28;20657;-67
2023/08/15 12:02:43;;;;;;;5.65;5.15;;;;;;;;;;5022670;28;20200;-68
2023/08/15 12:05:11;;;;;;;6.18;4.82;;;;;;;;;;5020929;28;20245;-67
2023/08/15 12:07:41;;;;;;;5.30;4.80;;;;;;;;;;5020730;28;20229;-68
2023/08/15 12:10:09;;;;;;;5.80;4.25;;;;;;;;;;5022457;28;20203;-68
2023/08/15 12:12:40;;;;;;;4.70;4.30;;;;;;;;;;5022083;28;20213;-67
2023/08/15 12:15:08;;;;;;;4.10;3.80;;;;;;;;;;5026518;28;20196;-68
2023/08/15 12:17:35;;;;;;;3.78;3.38;;;;;;;;;;5021303;28;20601;-67
2023/08/15 12:20:04;;;;;;;4.57;4.03;;;;;;;;;;5025955;28;20235;-67
2023/08/15 12:22:32;;;;;;;3.28;3.08;;;;;;;;;;5024153;28;20204;-67
2023/08/15 12:24:59;;;;;;;3.10;2.90;;;;;;;;;;5018750;28;20204;-67
2023/08/15 12:27:26;;;;;;;3.60;3.30;;;;;;;;;;5021608;28;20285;-67
2023/08/15 12:29:53;;;;;;;5.53;2.85;;;;;;;;;;5020414;28;20204;-67
2023/08/15 12:32:21;;;;;;;4.03;3.13;;;;;;;;;;5021078;28;20214;-67
2023/08/15 12:34:48;;;;;;;3.03;2.83;;;;;;;;;;5021361;28;20213;-67
2023/08/15 12:37:16;;;;;;;3.22;2.92;;;;;;;;;;5020480;28;20204;-67
2023/08/15 12:39:43;;;;;;;2.88;2.67;;;;;;;;;;5021935;28;20209;-66
2023/08/15 12:42:11;;;;;;;2.60;2.40;;;;;;;;;;5019486;28;20203;-67
2023/08/15 12:44:38;;;;;;;2.10;2.00;;;;;;;;;;5021362;28;20205;-67
2023/08/15 12:47:05;;;;;;;4.00;2.28;;;;;;;;;;5024254;28;20220;-67
2023/08/15 12:49:32;;;;;;;2.20;2.10;;;;;;;;;;5027997;28;20226;-67
2023/08/15 12:52:00;;;;;;;1.85;1.75;;;;;;;;;;5019171;28;20212;-67
2023/08/15 12:54:28;;;;;;;1.60;1.50;;;;;;;;;;5019970;28;20200;-67
2023/08/15 12:56:56;;;;;;;2.42;2.22;;;;;;;;;;5013622;28;20201;-67
2023/08/15 12:59:23;;;;;;;2.38;2.25;;;;;;;;;;5018643;28;20240;-67
2023/08/15 13:01:50;;;;;;;2.20;2.10;;;;;;;;;;5025093;28;20207;-67
2023/08/15 13:04:17;;;;;;;3.33;2.70;;;;;;;;;;5015823;28;20211;-67
2023/08/15 13:06:44;;;;;;;3.25;3.03;;;;;;;;;;5020815;28;20234;-67
2023/08/15 13:09:12;;;;;;;3.20;2.90;;;;;;;;;;5024968;28;20218;-67
2023/08/15 13:11:40;;;;;;;2.90;2.70;;;;;;;;;;5015142;28;20212;-67
2023/08/15 13:14:07;;;;;;;3.00;2.80;;;;;;;;;;5021786;28;20208;-68
2023/08/15 13:16:35;;;;;;;3.15;2.88;;;;;;;;;;5018390;28;20200;-67
2023/08/15 13:19:02;;;;;;;4.15;2.50;;;;;;;;;;5026249;28;20208;-67
2023/08/15 13:21:29;;;;;;;3.08;2.78;;;;;;;;;;5020999;28;20219;-66
2023/08/15 13:23:56;;;;;;;4.47;2.50;;;;;;;;;;5018947;28;20208;-67
2023/08/15 13:26:24;;;;;;;2.30;2.20;;;;;;;;;;5019233;28;20208;-67
2023/08/15 13:28:52;;;;;;;2.60;2.40;;;;;;;;;;5020169;28;20200;-67
2023/08/15 13:31:19;;;;;;;2.63;2.42;;;;;;;;;;5020493;28;20214;-66
2023/08/15 13:33:47;;;;;;;4.03;2.40;;;;;;;;;;5024806;28;20219;-67
2023/08/15 13:36:14;;;;;;;2.40;2.20;;;;;;;;;;5017960;28;20208;-67
2023/08/15 13:38:41;;;;;;;2.80;2.08;;;;;;;;;;5026527;28;20199;-67
2023/08/15 13:41:09;;;;;;;2.10;2.00;;;;;;;;;;5021295;28;20211;-67
2023/08/15 13:43:36;;;;;;;4.03;2.05;;;;;;;;;;5020459;28;20385;-67
2023/08/15 13:46:05;;;;;;;2.28;2.15;;;;;;;;;;5018214;28;20209;-66
2023/08/15 13:48:33;;;;;;;2.60;2.38;;;;;;;;;;5018544;28;20278;-67
2023/08/15 13:51:00;;;;;;;2.30;2.20;;;;;;;;;;5022739;28;20207;-67
2023/08/15 13:53:27;;;;;;;2.60;2.40;;;;;;;;;;5024687;28;20204;-67
2023/08/15 13:55:56;;;;;;;2.50;2.30;;;;;;;;;;5017664;28;20210;-67
2023/08/15 13:58:23;;;;;;;2.40;2.20;;;;;;;;;;5022415;28;20239;-67
2023/08/15 14:00:50;;;;;;;2.67;2.20;;;;;;;;;;5020223;28;20226;-66
2023/08/15 14:03:20;;;;;;;2.90;2.47;;;;;;;;;;5024896;28;20204;-66
2023/08/15 14:05:47;;;;;;;2.70;2.33;;;;;;;;;;5022612;28;20204;-66
2023/08/15 14:08:14;;;;;;;4.75;2.70;;;;;;;;;;5020316;28;20228;-66
2023/08/15 14:10:41;;;;;;;3.53;2.72;;;;;;;;;;5024670;28;20209;-67
2023/08/15 14:13:08;;;;;;;2.85;2.50;;;;;;;;;;5030163;28;20203;-67
2023/08/15 14:15:37;;;;;;;2.30;2.20;;;;;;;;;;5025418;28;20205;-67
2023/08/15 14:18:04;;;;;;;2.60;2.40;;;;;;;;;;5022665;28;20197;-67
2023/08/15 14:20:35;;;;;;;2.67;2.40;;;;;;;;;;5025092;28;20534;-67
2023/08/15 14:23:02;;;;;;;2.67;2.47;;;;;;;;;;5023116;28;20200;-67
2023/08/15 14:25:29;;;;;;;2.55;2.20;;;;;;;;;;5022757;28;20196;-67
2023/08/15 14:27:56;;;;;;;3.25;2.13;;;;;;;;;;5024972;28;20226;-63
2023/08/15 14:30:23;;;;;;;2.50;2.10;;;;;;;;;;5026314;28;20196;-63
2023/08/15 14:32:50;;;;;;;2.00;1.90;;;;;;;;;;5028772;28;20203;-62
2023/08/15 14:35:19;;;;;;;2.03;1.83;;;;;;;;;;5028889;28;20205;-64
2023/08/15 14:37:47;;;;;;;2.42;2.22;;;;;;;;;;5023023;28;20203;-67
2023/08/15 14:40:15;;;;;;;2.50;2.30;;;;;;;;;;5023449;28;20222;-67
2023/08/15 14:42:42;;;;;;;2.22;2.10;;;;;;;;;;5023947;28;20223;-66
2023/08/15 14:45:10;;;;;;;4.20;2.25;;;;;;;;;;5029380;28;20208;-66
2023/08/15 14:47:39;;;;;;;2.75;2.00;;;;;;;;;;5023964;28;20212;-67